createdAt,value
2018-09-03T00:00:28.538Z,19.53
2018-09-03T00:02:58.477Z,19.53
2018-09-03T00:05:27.471Z,19.53
2018-09-03T00:07:56.465Z,19.52
2018-09-03T00:10:25.475Z,19.50
2018-09-03T00:12:54.473Z,19.50
2018-09-03T00:15:23.594Z,19.49
2018-09-03T00:17:52.688Z,19.44
2018-09-03T00:20:21.744Z,19.36
2018-09-03T00:22:50.738Z,19.30
2018-09-03T00:25:19.746Z,19.27
2018-09-03T00:27:48.761Z,19.28
2018-09-03T00:30:17.802Z,19.30
2018-09-03T00:32:52.004Z,19.28
2018-09-03T00:35:26.105Z,19.25
2018-09-03T00:38:00.033Z,19.25
2018-09-03T00:40:34.288Z,19.26
2018-09-03T00:43:08.461Z,19.27
2018-09-03T00:45:42.453Z,19.25
2018-09-03T00:48:11.516Z,19.22
2018-09-03T00:50:40.516Z,19.18
2018-09-03T00:53:09.608Z,19.17
2018-09-03T00:55:38.709Z,19.18
2018-09-03T00:58:07.776Z,19.19
2018-09-03T01:00:36.808Z,19.16
2018-09-03T01:03:06.144Z,19.12
2018-09-03T01:05:35.145Z,19.12
2018-09-03T01:08:04.171Z,19.12
2018-09-03T01:10:33.152Z,19.15
2018-09-03T01:13:02.178Z,19.19
2018-09-03T01:15:31.612Z,19.21
2018-09-03T01:18:02.111Z,19.21
2018-09-03T01:20:31.800Z,19.24
2018-09-03T01:23:02.064Z,19.22
2018-09-03T01:25:31.143Z,19.17
2018-09-03T01:28:00.400Z,19.15
2018-09-03T01:30:29.391Z,19.15
2018-09-03T01:32:58.449Z,19.16
2018-09-03T01:35:27.591Z,19.17
2018-09-03T01:37:56.596Z,19.15
2018-09-03T01:40:25.646Z,19.13
2018-09-03T01:42:54.702Z,19.08
2018-09-03T01:45:23.726Z,19.05
2018-09-03T01:47:53.949Z,19.03
2018-09-03T01:50:22.939Z,19.05
2018-09-03T01:52:51.934Z,19.06
2018-09-03T01:55:20.923Z,19.05
2018-09-03T01:57:49.955Z,19.05
2018-09-03T02:00:19.011Z,19.06
2018-09-03T02:02:48.041Z,19.09
2018-09-03T02:05:17.058Z,19.06
2018-09-03T02:07:46.119Z,19.06
2018-09-03T02:10:15.216Z,19.04
2018-09-03T02:12:44.249Z,18.99
2018-09-03T02:15:13.299Z,18.99
2018-09-03T02:17:42.434Z,19.00
2018-09-03T02:20:11.569Z,19.01
2018-09-03T02:22:40.696Z,18.99
2018-09-03T02:25:09.723Z,18.95
2018-09-03T02:27:38.926Z,18.89
2018-09-03T02:30:08.142Z,18.83
2018-09-03T02:32:37.130Z,18.68
2018-09-03T02:35:06.255Z,18.56
2018-09-03T02:37:36.062Z,18.45
2018-09-03T02:40:05.220Z,18.32
2018-09-03T02:42:35.328Z,18.23
2018-09-03T02:45:04.520Z,18.24
2018-09-03T02:47:33.565Z,18.29
2018-09-03T02:50:02.593Z,18.29
2018-09-03T02:52:32.962Z,18.27
2018-09-03T02:55:02.006Z,18.22
2018-09-03T02:57:31.299Z,18.16
2018-09-03T03:00:00.315Z,18.13
2018-09-03T03:02:29.420Z,18.13
2018-09-03T03:04:58.519Z,18.14
2018-09-03T03:07:27.532Z,18.08
2018-09-03T03:09:56.542Z,18.05
2018-09-03T03:12:26.259Z,18.04
2018-09-03T03:14:57.393Z,18.03
2018-09-03T03:17:26.573Z,18.02
2018-09-03T03:19:56.699Z,18.04
2018-09-03T03:22:26.072Z,18.04
2018-09-03T03:24:55.167Z,18.00
2018-09-03T03:27:24.205Z,17.98
2018-09-03T03:29:53.261Z,18.00
2018-09-03T03:32:22.428Z,17.97
2018-09-03T03:34:52.369Z,17.93
2018-09-03T03:37:21.440Z,17.94
2018-09-03T03:39:50.516Z,17.94
2018-09-03T03:42:19.563Z,17.91
2018-09-03T03:44:48.603Z,17.91
2018-09-03T03:47:17.617Z,17.91
2018-09-03T03:49:46.696Z,17.90
2018-09-03T03:52:15.685Z,17.94
2018-09-03T03:54:44.679Z,17.95
2018-09-03T03:57:13.660Z,17.97
2018-09-03T03:59:42.801Z,18.00
2018-09-03T04:02:11.969Z,17.94
2018-09-03T04:04:40.981Z,17.88
2018-09-03T04:07:10.398Z,17.87
2018-09-03T04:09:40.011Z,17.86
2018-09-03T04:12:09.021Z,17.86
2018-09-03T04:14:38.015Z,17.89
2018-09-03T04:17:07.007Z,17.91
2018-09-03T04:19:36.105Z,17.90
2018-09-03T04:22:05.755Z,17.94
2018-09-03T04:24:34.753Z,17.96
2018-09-03T04:27:03.925Z,17.98
2018-09-03T04:29:33.124Z,17.91
2018-09-03T04:32:02.866Z,17.83
2018-09-03T04:34:31.865Z,17.80
2018-09-03T04:37:00.863Z,17.73
2018-09-03T04:39:29.923Z,17.67
2018-09-03T04:41:59.018Z,17.67
2018-09-03T04:44:28.255Z,17.64
2018-09-03T04:46:57.241Z,17.58
2018-09-03T04:49:26.255Z,17.53
2018-09-03T04:51:55.243Z,17.54
2018-09-03T04:54:24.288Z,17.57
2018-09-03T04:56:53.339Z,17.67
2018-09-03T04:59:22.425Z,17.75
2018-09-03T05:01:51.391Z,17.79
2018-09-03T05:04:20.394Z,17.78
2018-09-03T05:06:49.466Z,17.78
2018-09-03T05:09:18.537Z,17.79
2018-09-03T05:11:47.853Z,17.80
2018-09-03T05:14:17.040Z,17.82
2018-09-03T05:16:46.132Z,17.82
2018-09-03T05:19:15.132Z,17.81
2018-09-03T05:21:44.134Z,17.83
2018-09-03T05:24:13.220Z,17.85
2018-09-03T05:26:42.419Z,17.87
2018-09-03T05:29:11.429Z,17.88
2018-09-03T05:31:40.423Z,17.84
2018-09-03T05:34:09.437Z,17.80
2018-09-03T05:36:38.838Z,17.83
2018-09-03T05:39:11.180Z,17.88
2018-09-03T05:41:40.907Z,17.93
2018-09-03T05:44:10.649Z,17.94
2018-09-03T05:46:40.040Z,17.88
2018-09-03T05:49:09.208Z,17.84
2018-09-03T05:51:38.919Z,17.84
2018-09-03T05:54:08.034Z,17.88
2018-09-03T05:56:37.259Z,17.88
2018-09-03T05:59:06.743Z,17.90
2018-09-03T06:01:36.394Z,17.94
2018-09-03T06:04:05.697Z,17.92
2018-09-03T06:06:34.756Z,17.91
2018-09-03T06:09:05.039Z,17.95
2018-09-03T06:11:34.069Z,17.99
2018-09-03T06:14:05.179Z,17.94
2018-09-03T06:16:34.309Z,17.93
2018-09-03T06:19:03.408Z,17.98
2018-09-03T06:21:32.439Z,17.99
2018-09-03T06:24:01.807Z,17.98
2018-09-03T06:26:30.830Z,17.99
2018-09-03T06:28:59.808Z,18.06
2018-09-03T06:31:28.927Z,18.11
2018-09-03T06:33:57.943Z,18.11
2018-09-03T06:36:27.043Z,18.14
2018-09-03T06:38:56.189Z,18.20
2018-09-03T06:41:25.232Z,18.28
2018-09-03T06:43:54.484Z,18.33
2018-09-03T06:46:23.519Z,18.37
2018-09-03T06:48:52.533Z,18.40
2018-09-03T06:51:21.699Z,18.42
2018-09-03T06:53:50.804Z,18.48
2018-09-03T06:56:19.798Z,18.55
2018-09-03T06:58:48.852Z,18.62
2018-09-03T07:01:17.978Z,18.68
2018-09-03T07:03:47.190Z,18.75
2018-09-03T07:06:16.209Z,18.80
2018-09-03T07:08:45.821Z,18.84
2018-09-03T07:11:14.863Z,18.87
2018-09-03T07:13:47.097Z,18.89
2018-09-03T07:16:16.202Z,18.87
2018-09-03T07:18:45.612Z,18.88
2018-09-03T07:21:14.609Z,18.86
2018-09-03T07:23:43.662Z,18.84
2018-09-03T07:26:12.793Z,18.85
2018-09-03T07:28:41.874Z,18.86
2018-09-03T07:31:10.958Z,18.92
2018-09-03T07:33:40.016Z,18.99
2018-09-03T07:36:09.230Z,19.02
2018-09-03T07:38:38.370Z,19.04
2018-09-03T07:41:07.537Z,19.05
2018-09-03T07:43:36.672Z,19.10
2018-09-03T07:46:06.968Z,19.12
2018-09-03T07:48:36.004Z,19.10
2018-09-03T07:51:05.052Z,19.11
2018-09-03T07:53:35.023Z,19.17
2018-09-03T07:56:04.221Z,19.23
2018-09-03T07:58:33.313Z,19.29
2018-09-03T08:01:02.469Z,19.33
2018-09-03T08:03:31.543Z,19.35
2018-09-03T08:06:00.632Z,19.36
2018-09-03T08:08:30.718Z,19.41
2018-09-03T08:10:59.818Z,19.43
2018-09-03T08:13:33.848Z,19.50
2018-09-03T08:16:02.965Z,19.62
2018-09-03T08:18:40.767Z,19.72
2018-09-03T08:21:10.035Z,19.82
2018-09-03T08:23:39.288Z,19.91
2018-09-03T08:26:08.356Z,20.00
2018-09-03T08:28:37.481Z,20.08
2018-09-03T08:31:07.063Z,20.14
2018-09-03T08:33:36.171Z,20.19
2018-09-03T08:36:05.292Z,20.22
2018-09-03T08:38:34.385Z,20.21
2018-09-03T08:41:03.592Z,20.14
2018-09-03T08:43:32.742Z,20.09
2018-09-03T08:46:08.238Z,20.09
2018-09-03T08:48:38.521Z,20.13
2018-09-03T08:51:07.814Z,20.14
2018-09-03T08:53:37.025Z,20.17
2018-09-03T08:56:06.334Z,20.19
2018-09-03T08:58:35.826Z,20.21
2018-09-03T09:01:05.987Z,20.23
2018-09-03T09:03:42.370Z,20.21
2018-09-03T09:06:14.493Z,20.22
2018-09-03T09:08:43.654Z,20.26
2018-09-03T09:11:13.852Z,20.26
2018-09-03T09:13:42.974Z,20.28
2018-09-03T09:16:12.249Z,20.31
2018-09-03T09:18:41.386Z,20.37
2018-09-03T09:21:10.643Z,20.42
2018-09-03T09:23:40.143Z,20.48
2018-09-03T09:26:09.335Z,20.54
2018-09-03T09:28:38.502Z,20.63
2018-09-03T09:31:07.594Z,20.71
2018-09-03T09:33:36.732Z,20.80
2018-09-03T09:36:05.948Z,20.87
2018-09-03T09:38:35.141Z,20.95
2018-09-03T09:41:04.340Z,21.02
2018-09-03T09:43:33.457Z,21.06
2018-09-03T09:46:02.546Z,21.08
2018-09-03T09:48:31.643Z,21.10
2018-09-03T09:51:00.670Z,21.10
2018-09-03T09:53:31.328Z,21.06
2018-09-03T09:56:00.381Z,21.01
2018-09-03T09:58:30.696Z,20.98
2018-09-03T10:01:06.033Z,20.94
2018-09-03T10:03:36.386Z,20.91
2018-09-03T10:06:05.720Z,20.83
2018-09-03T10:08:34.743Z,20.79
2018-09-03T10:11:04.732Z,20.76
2018-09-03T10:13:33.871Z,20.77
2018-09-03T10:16:03.130Z,20.76
2018-09-03T10:18:32.238Z,20.77
2018-09-03T10:21:01.401Z,20.77
2018-09-03T10:23:31.017Z,20.75
2018-09-03T10:26:00.287Z,20.69
2018-09-03T10:28:29.485Z,20.66
2018-09-03T10:30:58.532Z,20.62
2018-09-03T10:33:27.632Z,20.63
2018-09-03T10:35:56.824Z,20.64
2018-09-03T10:38:25.894Z,20.66
2018-09-03T10:40:55.771Z,20.69
2018-09-03T10:43:25.118Z,20.74
2018-09-03T10:45:54.329Z,20.75
2018-09-03T10:48:23.397Z,20.72
2018-09-03T10:50:53.051Z,20.69
2018-09-03T10:53:22.171Z,20.60
2018-09-03T10:55:54.500Z,20.49
2018-09-03T11:01:17.277Z,20.40
2018-09-03T11:03:47.216Z,20.32
2018-09-03T11:06:16.288Z,20.18
2018-09-03T11:08:49.768Z,20.09
2018-09-03T11:11:32.667Z,20.04
2018-09-03T11:14:02.427Z,19.97
2018-09-03T11:19:22.190Z,19.72
2018-09-03T11:21:51.332Z,19.70
2018-09-03T11:24:20.487Z,19.63
2018-09-03T11:27:00.677Z,19.52
2018-09-03T11:29:30.845Z,19.44
2018-09-03T11:32:00.105Z,19.48
2018-09-03T11:34:34.434Z,19.51
2018-09-03T11:37:04.411Z,19.48
2018-09-03T11:39:33.508Z,19.37
2018-09-03T11:42:03.049Z,19.30
2018-09-03T11:44:32.984Z,19.26
2018-09-03T11:47:03.231Z,19.23
2018-09-03T11:49:32.731Z,19.23
2018-09-03T11:52:02.736Z,19.21
2018-09-03T11:54:32.122Z,19.19
2018-09-03T11:57:02.250Z,19.22
2018-09-03T11:59:31.349Z,19.20
2018-09-03T12:02:00.702Z,19.18
2018-09-03T12:04:30.125Z,19.19
2018-09-03T12:06:59.350Z,19.10
2018-09-03T12:09:28.472Z,18.96
2018-09-03T12:11:57.650Z,18.93
2018-09-03T12:14:31.686Z,18.87
2018-09-03T12:17:02.326Z,18.74
2018-09-03T12:19:31.453Z,18.72
2018-09-03T12:22:02.172Z,18.83
2018-09-03T12:24:31.231Z,18.85
2018-09-03T12:27:04.717Z,18.80
2018-09-03T12:29:34.035Z,18.79
2018-09-03T12:32:03.109Z,18.83
2018-09-03T12:34:32.236Z,18.78
2018-09-03T12:37:01.468Z,18.84
2018-09-03T12:39:32.088Z,18.86
2018-09-03T12:42:01.215Z,18.86
2018-09-03T12:44:30.437Z,18.90
2018-09-03T12:47:00.292Z,18.88
2018-09-03T12:49:37.362Z,18.89
2018-09-03T12:52:06.564Z,18.97
2018-09-03T12:54:35.600Z,19.04
2018-09-03T12:59:49.134Z,18.93
2018-09-03T13:02:18.198Z,18.82
2018-09-03T13:04:47.487Z,18.81
2018-09-03T13:07:17.177Z,18.74
2018-09-03T13:09:46.265Z,18.71
2018-09-03T13:12:15.516Z,18.74
2018-09-03T13:14:45.013Z,18.76
2018-09-03T13:17:14.323Z,18.81
2018-09-03T13:19:44.742Z,18.84
2018-09-03T13:22:13.905Z,18.86
2018-09-03T13:24:43.083Z,18.97
2018-09-03T13:27:12.501Z,19.08
2018-09-03T13:29:42.262Z,19.23
2018-09-03T13:32:12.893Z,19.35
2018-09-03T13:34:42.125Z,19.47
2018-09-03T13:37:12.332Z,19.55
2018-09-03T13:39:41.540Z,19.65
2018-09-03T13:42:16.136Z,19.70
2018-09-03T13:44:45.736Z,19.64
2018-09-03T13:47:15.097Z,19.54
2018-09-03T13:49:44.351Z,19.41
2018-09-03T13:52:30.739Z,19.32
2018-09-03T13:55:02.109Z,19.30
2018-09-03T14:00:42.742Z,19.41
2018-09-03T14:03:23.435Z,19.46
2018-09-03T14:06:02.233Z,19.47
2018-09-03T14:14:32.142Z,19.72
2018-09-03T14:20:25.263Z,19.88
2018-09-03T14:37:03.565Z,19.78
2018-09-03T14:39:35.308Z,19.84
2018-09-03T14:44:58.367Z,19.88
2018-09-03T14:47:27.378Z,19.94
2018-09-03T14:49:56.872Z,19.93
2018-09-03T14:52:27.263Z,19.93
2018-09-03T14:55:14.289Z,19.93
2018-09-03T14:57:43.549Z,19.90
2018-09-03T15:00:13.599Z,19.88
2018-09-03T15:02:42.625Z,19.88
2018-09-03T15:05:11.639Z,19.86
2018-09-03T15:07:40.724Z,19.88
2018-09-03T15:10:09.864Z,19.89
2018-09-03T15:12:39.534Z,19.90
2018-09-03T15:15:08.651Z,19.94
2018-09-03T15:17:40.302Z,19.95
2018-09-03T15:20:37.719Z,19.93
2018-09-03T15:26:25.562Z,19.73
2018-09-03T15:28:54.999Z,19.68
2018-09-03T15:31:24.013Z,19.68
2018-09-03T15:33:53.319Z,19.70
2018-09-03T15:36:23.638Z,19.71
2018-09-03T15:38:53.095Z,19.73
2018-09-03T15:41:22.123Z,19.70
2018-09-03T15:43:51.208Z,19.65
2018-09-03T15:46:20.424Z,19.69
2018-09-03T15:48:49.576Z,19.75
2018-09-03T15:51:18.695Z,19.78
2018-09-03T15:53:48.220Z,19.77
2018-09-03T15:56:17.333Z,19.79
2018-09-03T15:58:46.493Z,19.73
2018-09-03T16:01:15.755Z,19.67
2018-09-03T16:03:45.034Z,19.60
2018-09-03T16:06:14.220Z,19.60
2018-09-03T16:08:46.016Z,19.64
2018-09-03T16:11:15.256Z,19.69
2018-09-03T16:13:44.475Z,19.69
2018-09-03T16:16:13.665Z,19.73
2018-09-03T16:18:58.537Z,19.76
2018-09-03T16:21:28.177Z,19.81
2018-09-03T16:23:57.165Z,19.82
2018-09-03T16:26:26.200Z,19.82
2018-09-03T16:28:55.272Z,19.79
2018-09-03T16:31:24.377Z,19.77
2018-09-03T16:33:53.661Z,19.71
2018-09-03T16:36:22.686Z,19.67
2018-09-03T16:38:52.043Z,19.65
2018-09-03T16:41:21.164Z,19.63
2018-09-03T16:43:50.222Z,19.52
2018-09-03T16:46:19.243Z,19.47
2018-09-03T16:48:48.396Z,19.49
2018-09-03T16:51:17.535Z,19.49
2018-09-03T16:53:46.571Z,19.46
2018-09-03T16:56:15.589Z,19.38
2018-09-03T16:58:44.634Z,19.33
2018-09-03T17:01:14.486Z,19.27
2018-09-03T17:03:44.431Z,19.19
2018-09-03T17:06:13.690Z,19.13
2018-09-03T17:08:43.156Z,19.12
2018-09-03T17:11:12.209Z,19.12
2018-09-03T17:13:41.385Z,19.04
2018-09-03T17:16:10.569Z,18.91
2018-09-03T17:18:40.302Z,18.83
2018-09-03T17:21:09.329Z,18.75
2018-09-03T17:23:38.456Z,18.74
2018-09-03T17:26:07.428Z,18.74
2018-09-03T17:28:36.917Z,18.78
2018-09-03T17:31:05.923Z,18.76
2018-09-03T17:33:35.122Z,18.75
2018-09-03T17:36:05.052Z,18.75
2018-09-03T17:38:34.111Z,18.78
2018-09-03T17:41:03.124Z,18.82
2018-09-03T17:43:32.220Z,18.85
2018-09-03T17:46:01.281Z,18.84
2018-09-03T17:48:30.475Z,18.85
2018-09-03T17:50:59.955Z,18.87
2018-09-03T17:53:29.524Z,18.84
2018-09-03T17:56:58.638Z,18.82
2018-09-03T18:02:19.760Z,18.83
2018-09-03T18:04:48.808Z,18.75
2018-09-03T18:07:18.876Z,18.64
2018-09-03T18:09:48.140Z,18.54
2018-09-03T18:12:17.158Z,18.52
2018-09-03T18:14:46.262Z,18.53
2018-09-03T18:17:15.381Z,18.55
2018-09-03T18:19:44.401Z,18.52
2018-09-03T18:22:13.423Z,18.54
2018-09-03T18:24:42.416Z,18.57
2018-09-03T18:27:12.492Z,18.61
2018-09-03T18:29:41.636Z,18.62
2018-09-03T18:32:10.668Z,18.60
2018-09-03T18:34:40.050Z,18.60
2018-09-03T18:37:10.611Z,18.58
2018-09-03T18:39:40.050Z,18.56
2018-09-03T18:42:08.637Z,18.55
2018-09-03T18:44:38.622Z,18.54
2018-09-03T18:47:08.786Z,18.53
2018-09-03T18:49:38.381Z,18.51
2018-09-03T18:52:07.440Z,18.50
2018-09-03T18:54:37.228Z,18.47
2018-09-03T18:57:06.440Z,18.45
2018-09-03T18:59:35.526Z,18.44
2018-09-03T19:02:04.687Z,18.38
2018-09-03T19:04:33.787Z,18.28
2018-09-03T19:07:02.900Z,18.27
2018-09-03T19:09:31.907Z,18.26
2018-09-03T19:12:01.382Z,18.25
2018-09-03T19:14:30.410Z,18.27
2018-09-03T19:16:59.419Z,18.26
2018-09-03T19:19:28.799Z,18.22
2018-09-03T19:21:57.880Z,18.20
2018-09-03T19:24:27.006Z,18.16
2018-09-03T19:26:56.621Z,18.14
2018-09-03T19:29:25.644Z,18.13
2018-09-03T19:31:55.762Z,18.13
2018-09-03T19:34:24.801Z,18.11
2018-09-03T19:36:54.179Z,18.02
2018-09-03T19:39:23.210Z,17.97
2018-09-03T19:41:52.202Z,17.91
2018-09-03T19:44:21.198Z,17.85
2018-09-03T19:46:51.076Z,17.85
2018-09-03T19:49:26.637Z,17.81
2018-09-03T19:51:55.797Z,17.79
2018-09-03T19:54:24.819Z,17.76
2018-09-03T19:56:58.920Z,17.71
2018-09-03T19:59:27.982Z,17.62
2018-09-03T20:01:57.060Z,17.54
2018-09-03T20:04:26.085Z,17.48
2018-09-03T20:06:55.091Z,17.44
2018-09-03T20:09:24.083Z,17.35
2018-09-03T20:11:53.196Z,17.28
2018-09-03T20:14:22.421Z,17.30
2018-09-03T20:16:52.300Z,17.34
2018-09-03T20:19:21.533Z,17.29
2018-09-03T20:21:50.844Z,17.25
2018-09-03T20:24:20.876Z,17.22
2018-09-03T20:26:49.911Z,17.17
2018-09-03T20:29:20.581Z,17.07
2018-09-03T20:31:49.927Z,17.01
2018-09-03T20:34:18.944Z,16.95
2018-09-03T20:36:48.007Z,16.92
2018-09-03T20:39:17.090Z,16.92
2018-09-03T20:41:46.210Z,16.92
2018-09-03T20:44:15.344Z,16.88
2018-09-03T20:46:44.420Z,16.84
2018-09-03T20:49:13.515Z,16.82
2018-09-03T20:51:42.719Z,16.83
2018-09-03T20:54:11.784Z,16.80
2018-09-03T20:56:40.881Z,16.75
2018-09-03T20:59:09.981Z,16.74
2018-09-03T21:01:39.203Z,16.75
2018-09-03T21:04:08.536Z,16.74
2018-09-03T21:06:37.643Z,16.73
2018-09-03T21:09:08.125Z,16.71
2018-09-03T21:11:37.253Z,16.71
2018-09-03T21:14:07.230Z,16.68
2018-09-03T21:16:36.718Z,16.63
2018-09-03T21:19:05.969Z,16.61
2018-09-03T21:21:35.880Z,16.62
2018-09-03T21:24:04.897Z,16.58
2018-09-03T21:26:34.667Z,16.49
2018-09-03T21:29:03.726Z,16.43
2018-09-03T21:31:32.787Z,16.44
2018-09-03T21:34:01.850Z,16.45
2018-09-03T21:36:30.850Z,16.48
2018-09-03T21:39:01.735Z,16.51
2018-09-03T21:41:30.874Z,16.59
2018-09-03T21:43:59.980Z,16.59
2018-09-03T21:46:29.091Z,16.56
2018-09-03T21:48:58.105Z,16.55
2018-09-03T21:51:27.139Z,16.54
2018-09-03T21:53:56.148Z,16.50
2018-09-03T21:56:25.171Z,16.48
2018-09-03T21:58:54.188Z,16.48
2018-09-03T22:01:23.538Z,16.47
2018-09-03T22:03:52.587Z,16.46
2018-09-03T22:06:21.563Z,16.45
2018-09-03T22:08:50.500Z,16.49
2018-09-03T22:11:19.541Z,16.49
2018-09-03T22:13:49.392Z,16.46
2018-09-03T22:16:18.392Z,16.43
2018-09-03T22:19:03.001Z,16.41
2018-09-03T22:21:52.255Z,16.39
2018-09-03T22:24:36.033Z,16.38
2018-09-03T22:27:08.763Z,16.38
2018-09-03T22:29:40.835Z,16.37
2018-09-03T22:32:20.539Z,16.36
2018-09-03T22:35:04.098Z,16.37
2018-09-03T22:37:49.686Z,16.39
2018-09-03T22:40:18.812Z,16.40
2018-09-03T22:43:03.201Z,16.40
2018-09-03T22:45:32.414Z,16.40
2018-09-03T22:48:13.905Z,16.40
2018-09-03T22:50:59.585Z,16.39
2018-09-03T22:53:44.972Z,16.40
2018-09-03T22:56:14.290Z,16.40
2018-09-03T22:58:44.008Z,16.41
2018-09-03T23:01:26.405Z,16.43
2018-09-03T23:04:13.128Z,16.46
2018-09-03T23:06:59.342Z,16.43
2018-09-03T23:09:29.043Z,16.41
2018-09-03T23:12:07.936Z,16.39
2018-09-03T23:14:53.406Z,16.38
2018-09-03T23:17:22.386Z,16.43
2018-09-03T23:19:51.525Z,16.44
2018-09-03T23:22:20.568Z,16.43
2018-09-03T23:24:49.644Z,16.39
2018-09-03T23:27:18.668Z,16.38
2018-09-03T23:29:47.665Z,16.38
2018-09-03T23:32:16.697Z,16.38
2018-09-03T23:34:45.697Z,16.38
2018-09-03T23:37:14.696Z,16.34
2018-09-03T23:39:43.693Z,16.35
2018-09-03T23:42:12.756Z,16.37
2018-09-03T23:44:41.800Z,16.38
2018-09-03T23:47:11.101Z,16.38
2018-09-03T23:49:40.771Z,16.37
2018-09-03T23:52:09.840Z,16.35
2018-09-03T23:54:38.995Z,16.33
2018-09-03T23:57:08.048Z,16.33
2018-09-03T23:59:37.692Z,16.33
